Time;durP1;ratioP1;P1;durP2;ratioP2;P2;SDS_P1;SDS_P2;PMS_P1;PMS_P2;Temp;Humidity;BMP_temperature;BMP_pressure;BME280_temperature;BME280_humidity;BME280_pressure;Samples;Min_cycle;Max_cycle;Signal;HPM_P1;HPM_P2
2021/10/20 00:00:15;;;;;;;45.53;22.00;;;3.90;99.90;;;;;;4173651;28;20748;-61
2021/10/20 00:02:16;;;;;;;44.40;21.23;;;3.80;99.90;;;;;;4172657;28;20270;-61
2021/10/20 00:04:17;;;;;;;47.33;21.53;;;3.80;99.90;;;;;;4173347;28;20281;-61
2021/10/20 00:06:19;;;;;;;41.57;20.77;;;3.80;99.90;;;;;;4171726;28;20332;-62
2021/10/20 00:08:20;;;;;;;39.77;20.70;;;3.80;99.90;;;;;;4172923;28;20281;-61
2021/10/20 00:10:21;;;;;;;42.00;20.73;;;3.80;99.90;;;;;;4172319;28;20742;-62
2021/10/20 00:12:22;;;;;;;40.90;18.90;;;3.80;99.90;;;;;;4174177;28;20328;-62
2021/10/20 00:14:24;;;;;;;39.30;19.30;;;3.70;99.90;;;;;;4176143;28;20262;-62
2021/10/20 00:16:25;;;;;;;37.03;19.30;;;3.70;99.90;;;;;;4175210;28;20364;-61
2021/10/20 00:18:26;;;;;;;38.03;20.27;;;3.60;99.90;;;;;;4176210;28;20262;-61
2021/10/20 00:20:28;;;;;;;40.10;18.57;;;3.50;99.90;;;;;;4174767;28;20274;-62
2021/10/20 00:22:29;;;;;;;36.50;18.57;;;3.50;99.90;;;;;;4175585;28;20312;-61
2021/10/20 00:24:30;;;;;;;35.27;18.03;;;3.40;99.90;;;;;;4175119;28;20274;-61
2021/10/20 00:26:31;;;;;;;37.47;17.87;;;3.40;99.90;;;;;;4176105;28;20270;-59
2021/10/20 00:28:32;;;;;;;35.77;18.33;;;3.30;99.90;;;;;;4175521;28;20262;-60
2021/10/20 00:30:34;;;;;;;41.40;18.20;;;3.30;99.90;;;;;;4176686;28;20262;-61
2021/10/20 00:32:36;;;;;;;48.77;21.50;;;3.30;99.90;;;;;;4174808;28;20323;-61
2021/10/20 00:34:37;;;;;;;39.23;18.83;;;3.30;99.90;;;;;;4176305;28;20328;-61
2021/10/20 00:36:39;;;;;;;40.80;19.60;;;3.30;99.90;;;;;;4175532;28;20294;-60
2021/10/20 00:38:42;;;;;;;31.67;16.03;;;3.30;99.90;;;;;;4180902;28;20277;-61
2021/10/20 00:40:43;;;;;;;37.73;18.10;;;3.20;99.90;;;;;;4191838;28;20323;-61
2021/10/20 00:42:45;;;;;;;32.67;17.33;;;3.10;99.90;;;;;;4191981;28;20265;-60
2021/10/20 00:44:53;;;;;;;33.10;15.63;;;3.00;99.90;;;;;;4179050;28;20281;-61
2021/10/20 00:46:55;;;;;;;31.07;15.73;;;3.00;99.90;;;;;;4174997;28;20285;-62
2021/10/20 00:48:58;;;;;;;36.20;16.20;;;2.90;99.90;;;;;;4174984;28;20304;-61
2021/10/20 00:50:59;;;;;;;29.47;14.00;;;3.00;99.90;;;;;;4175287;28;20600;-61
2021/10/20 00:53:00;;;;;;;32.27;15.60;;;2.90;99.90;;;;;;4175526;28;20270;-60
2021/10/20 00:55:02;;;;;;;27.20;14.50;;;2.90;99.90;;;;;;4174310;28;20352;-60
2021/10/20 00:57:04;;;;;;;35.63;15.83;;;2.80;99.90;;;;;;4176162;28;20308;-60
2021/10/20 00:59:06;;;;;;;28.83;13.57;;;2.90;99.90;;;;;;4174250;28;20278;-60
2021/10/20 01:01:08;;;;;;;25.30;14.07;;;2.90;99.90;;;;;;4157205;28;20287;-60
2021/10/20 01:03:09;;;;;;;27.33;13.63;;;2.90;99.90;;;;;;4174058;28;20727;-61
2021/10/20 01:05:10;;;;;;;34.37;15.27;;;2.90;99.90;;;;;;4175461;28;20278;-60
2021/10/20 01:07:12;;;;;;;32.40;14.33;;;2.90;99.90;;;;;;4173820;28;20772;-60
2021/10/20 01:09:13;;;;;;;32.67;14.93;;;2.90;99.90;;;;;;4176178;28;20673;-60
2021/10/20 01:11:15;;;;;;;36.53;16.87;;;2.90;99.90;;;;;;4174347;28;20328;-60
2021/10/20 01:13:16;;;;;;;36.53;17.30;;;2.90;99.90;;;;;;4175230;28;20278;-60
2021/10/20 01:15:20;;;;;;;37.10;17.93;;;2.80;99.90;;;;;;4175032;28;20308;-59
2021/10/20 01:17:21;;;;;;;35.10;16.40;;;2.80;99.90;;;;;;4175503;28;20839;-61
2021/10/20 01:19:23;;;;;;;34.53;16.77;;;2.80;99.90;;;;;;4174736;28;20262;-60
2021/10/20 01:21:24;;;;;;;35.47;16.87;;;2.70;99.90;;;;;;4175059;28;20286;-60
2021/10/20 01:23:26;;;;;;;35.57;17.43;;;2.70;99.90;;;;;;4174760;28;20328;-61
2021/10/20 01:25:28;;;;;;;31.97;16.73;;;2.60;99.90;;;;;;4174026;28;20887;-61
2021/10/20 01:27:29;;;;;;;40.70;16.33;;;2.60;99.90;;;;;;4175945;28;20278;-59
2021/10/20 01:29:31;;;;;;;36.30;16.03;;;2.50;99.90;;;;;;4174465;28;20266;-61
2021/10/20 01:31:32;;;;;;;36.57;16.63;;;2.50;99.90;;;;;;4175683;28;20320;-62
2021/10/20 01:33:33;;;;;;;33.77;15.53;;;2.50;99.90;;;;;;4170312;28;20749;-61
2021/10/20 01:35:34;;;;;;;39.60;17.47;;;2.50;99.90;;;;;;4175423;28;20290;-60
2021/10/20 01:37:36;;;;;;;40.80;16.87;;;2.60;99.90;;;;;;4174644;28;21148;-61
2021/10/20 01:39:38;;;;;;;32.43;16.83;;;2.60;99.90;;;;;;4175855;28;20323;-60
2021/10/20 01:41:40;;;;;;;35.80;16.40;;;2.60;99.90;;;;;;4174273;28;20324;-61
2021/10/20 01:43:44;;;;;;;35.70;17.20;;;2.60;99.90;;;;;;4174716;28;20273;-61
2021/10/20 01:45:45;;;;;;;37.97;17.53;;;2.60;99.90;;;;;;4172522;28;20267;-61
2021/10/20 01:47:46;;;;;;;32.87;17.37;;;2.60;99.90;;;;;;4174622;28;20335;-60
2021/10/20 01:49:48;;;;;;;34.53;16.77;;;2.60;99.90;;;;;;4174028;28;20695;-61
2021/10/20 01:51:49;;;;;;;37.07;17.23;;;2.60;99.90;;;;;;4175051;28;20273;-62
2021/10/20 01:53:50;;;;;;;39.30;19.37;;;2.60;99.90;;;;;;4174343;28;20296;-59
2021/10/20 01:55:51;;;;;;;37.00;18.00;;;2.60;99.90;;;;;;4173710;28;20381;-61
2021/10/20 01:57:53;;;;;;;40.80;17.83;;;2.60;99.90;;;;;;4174227;28;20286;-60
2021/10/20 01:59:54;;;;;;;39.37;16.70;;;2.60;99.90;;;;;;4173107;28;20340;-60
2021/10/20 02:01:55;;;;;;;35.07;16.17;;;2.70;99.90;;;;;;4174018;28;20300;-62
2021/10/20 02:03:56;;;;;;;29.20;14.83;;;2.70;99.90;;;;;;4173763;28;20282;-59
2021/10/20 02:05:57;;;;;;;34.87;15.73;;;2.70;99.90;;;;;;4175140;28;20323;-60
2021/10/20 02:07:58;;;;;;;39.20;16.70;;;2.70;99.90;;;;;;4173696;28;20270;-61
2021/10/20 02:09:59;;;;;;;34.50;16.23;;;2.70;99.90;;;;;;4175175;28;20262;-61
2021/10/20 02:12:00;;;;;;;43.50;17.63;;;2.70;99.90;;;;;;4173671;28;20340;-59
2021/10/20 02:14:03;;;;;;;36.07;16.03;;;2.80;99.90;;;;;;4175323;28;20274;-60
2021/10/20 02:16:04;;;;;;;35.30;16.73;;;2.70;99.90;;;;;;4173466;28;20770;-60
2021/10/20 02:18:06;;;;;;;31.73;15.23;;;2.80;99.90;;;;;;4174276;28;20344;-62
2021/10/20 02:20:12;;;;;;;29.93;15.27;;;2.70;99.90;;;;;;4171984;28;20753;-61
2021/10/20 02:22:13;;;;;;;31.27;17.57;;;2.70;99.90;;;;;;4174581;28;21053;-61
2021/10/20 02:24:15;;;;;;;28.07;16.03;;;2.70;99.90;;;;;;4173567;28;20270;-61
2021/10/20 02:26:16;;;;;;;32.27;16.57;;;2.70;99.90;;;;;;4173915;28;20308;-60
2021/10/20 02:28:17;;;;;;;30.37;15.47;;;2.70;99.90;;;;;;4174453;28;20327;-60
2021/10/20 02:30:18;;;;;;;31.57;15.00;;;2.60;99.90;;;;;;4173393;28;20304;-61
2021/10/20 02:32:19;;;;;;;35.07;15.80;;;2.60;99.90;;;;;;4174403;28;20266;-61
2021/10/20 02:34:21;;;;;;;32.93;17.67;;;2.70;99.90;;;;;;4172915;28;20274;-60
2021/10/20 02:36:23;;;;;;;33.87;16.77;;;2.60;99.90;;;;;;4174355;28;20298;-60
2021/10/20 02:38:24;;;;;;;34.10;16.83;;;2.60;99.90;;;;;;4173135;28;20844;-61
2021/10/20 02:40:26;;;;;;;35.77;17.00;;;2.60;99.90;;;;;;4174161;28;20340;-61
2021/10/20 02:42:27;;;;;;;32.67;17.37;;;2.60;99.90;;;;;;4173420;28;20258;-61
2021/10/20 02:44:28;;;;;;;32.37;16.27;;;2.60;99.90;;;;;;4174783;28;20315;-61
2021/10/20 02:46:30;;;;;;;35.00;16.60;;;2.60;99.90;;;;;;4173554;28;20262;-61
2021/10/20 02:48:32;;;;;;;27.17;15.83;;;2.60;99.90;;;;;;4174120;28;20274;-61
2021/10/20 02:50:33;;;;;;;33.47;16.83;;;2.60;99.90;;;;;;4172559;28;20666;-61
2021/10/20 02:52:35;;;;;;;36.03;17.23;;;2.60;99.90;;;;;;4174650;28;20254;-61
2021/10/20 02:54:36;;;;;;;35.17;16.63;;;2.50;99.90;;;;;;4173348;28;20324;-61
2021/10/20 02:56:38;;;;;;;29.93;14.87;;;2.50;99.90;;;;;;4173215;28;20281;-61
2021/10/20 02:58:39;;;;;;;38.00;14.63;;;2.50;99.90;;;;;;4173391;28;20259;-61
2021/10/20 03:00:40;;;;;;;31.80;15.07;;;2.50;99.90;;;;;;4173136;28;20266;-61
2021/10/20 03:02:41;;;;;;;29.10;15.43;;;2.40;99.90;;;;;;4173720;28;20282;-61
2021/10/20 03:04:43;;;;;;;33.63;16.47;;;2.40;99.90;;;;;;4172550;28;20642;-61
2021/10/20 03:06:44;;;;;;;25.73;14.73;;;2.40;99.90;;;;;;4174301;28;20753;-61
2021/10/20 03:08:45;;;;;;;24.07;11.97;;;2.30;99.90;;;;;;4172274;28;20304;-61
2021/10/20 03:10:46;;;;;;;26.80;14.40;;;2.20;99.90;;;;;;4174051;28;21028;-61
2021/10/20 03:12:47;;;;;;;27.63;13.50;;;2.20;99.90;;;;;;4173168;28;20718;-62
2021/10/20 03:14:48;;;;;;;29.30;14.83;;;2.10;99.90;;;;;;4172771;28;20324;-61
2021/10/20 03:16:49;;;;;;;25.77;14.00;;;2.10;99.90;;;;;;4172759;28;20351;-61
2021/10/20 03:18:51;;;;;;;26.33;13.20;;;2.10;99.90;;;;;;4174442;28;20274;-60
2021/10/20 03:20:52;;;;;;;27.93;13.53;;;2.10;99.90;;;;;;4172214;28;20671;-61
2021/10/20 03:22:53;;;;;;;26.60;12.67;;;2.10;99.90;;;;;;4174305;28;20316;-62
2021/10/20 03:24:54;;;;;;;23.03;12.30;;;2.00;99.90;;;;;;4172431;28;21046;-61
2021/10/20 03:26:55;;;;;;;26.50;13.57;;;2.00;99.90;;;;;;4172431;28;20332;-63
2021/10/20 03:28:56;;;;;;;29.70;13.77;;;2.00;99.90;;;;;;4172543;28;20266;-62
2021/10/20 03:30:57;;;;;;;25.40;13.87;;;1.90;99.90;;;;;;4172634;28;21066;-61
2021/10/20 03:32:58;;;;;;;29.33;14.33;;;1.90;99.90;;;;;;4173890;28;20266;-61
2021/10/20 03:34:59;;;;;;;26.47;13.90;;;1.90;99.90;;;;;;4171957;28;20273;-62
2021/10/20 03:37:01;;;;;;;29.97;14.60;;;1.90;99.90;;;;;;4172665;28;20355;-61
2021/10/20 03:39:02;;;;;;;32.50;15.07;;;1.90;99.90;;;;;;4172256;28;20336;-61
2021/10/20 03:41:03;;;;;;;29.13;14.57;;;1.90;99.90;;;;;;4173920;28;20324;-62
2021/10/20 03:43:05;;;;;;;28.53;15.13;;;1.90;99.90;;;;;;4171075;28;20270;-62
2021/10/20 03:45:07;;;;;;;37.30;14.93;;;1.90;99.90;;;;;;4173497;28;20650;-60
2021/10/20 03:47:08;;;;;;;39.63;17.40;;;1.80;99.90;;;;;;4175044;28;20274;-60
2021/10/20 03:49:09;;;;;;;34.47;16.17;;;1.80;99.90;;;;;;4176953;28;20273;-61
2021/10/20 03:51:10;;;;;;;27.67;14.67;;;1.80;99.90;;;;;;4175673;28;20672;-62
2021/10/20 03:53:11;;;;;;;32.93;15.40;;;1.80;99.90;;;;;;4158967;28;20290;-62
2021/10/20 03:55:12;;;;;;;30.27;14.97;;;1.80;99.90;;;;;;4176047;28;20661;-61
2021/10/20 03:57:14;;;;;;;35.63;16.10;;;1.70;99.90;;;;;;4175668;28;20352;-61
2021/10/20 03:59:15;;;;;;;37.97;18.30;;;1.60;99.90;;;;;;4176073;28;20690;-60
2021/10/20 04:01:16;;;;;;;41.97;18.43;;;1.50;99.90;;;;;;4170100;28;20327;-59
2021/10/20 04:03:17;;;;;;;33.97;17.27;;;1.40;99.90;;;;;;4172549;28;20344;-62
2021/10/20 04:05:20;;;;;;;33.80;17.07;;;1.40;99.90;;;;;;4171521;28;20273;-61
2021/10/20 04:07:21;;;;;;;34.73;16.87;;;1.30;99.90;;;;;;4171795;28;20308;-60
2021/10/20 04:09:22;;;;;;;31.27;15.13;;;1.30;99.90;;;;;;4170539;28;20677;-61
2021/10/20 04:11:23;;;;;;;30.97;15.13;;;1.20;99.90;;;;;;4171261;28;20282;-58
2021/10/20 04:13:25;;;;;;;37.80;15.67;;;1.30;99.90;;;;;;4169399;28;20324;-61
2021/10/20 04:15:27;;;;;;;36.10;17.50;;;1.20;99.90;;;;;;4171137;28;20645;-61
2021/10/20 04:17:28;;;;;;;32.80;17.80;;;1.20;99.90;;;;;;4169952;28;20317;-61
2021/10/20 04:19:29;;;;;;;33.83;16.70;;;1.20;99.90;;;;;;4170844;28;20347;-62
2021/10/20 04:21:31;;;;;;;34.10;17.23;;;1.10;99.90;;;;;;4169198;28;20347;-61
2021/10/20 04:23:32;;;;;;;37.90;18.53;;;1.10;99.90;;;;;;4171288;28;20556;-61
2021/10/20 04:25:33;;;;;;;38.23;18.90;;;1.10;99.90;;;;;;4169820;28;20416;-60
2021/10/20 04:27:35;;;;;;;32.60;18.90;;;1.10;99.90;;;;;;4174010;28;20282;-59
2021/10/20 04:29:36;;;;;;;58.80;20.23;;;1.10;99.90;;;;;;4161428;28;21135;-61
2021/10/20 04:31:40;;;;;;;35.10;18.40;;;1.00;99.90;;;;;;4164849;28;20266;-61
2021/10/20 04:33:44;;;;;;;39.70;18.77;;;1.00;99.90;;;;;;4169352;28;20347;-58
2021/10/20 04:35:45;;;;;;;39.17;18.47;;;1.00;99.90;;;;;;4173202;28;20692;-60
2021/10/20 04:37:47;;;;;;;38.40;18.33;;;1.00;99.90;;;;;;4173796;28;20406;-61
2021/10/20 04:39:49;;;;;;;41.83;20.83;;;1.00;99.90;;;;;;4173365;28;20371;-61
2021/10/20 04:41:50;;;;;;;40.60;22.37;;;1.00;99.90;;;;;;4173938;28;20347;-62
2021/10/20 04:43:52;;;;;;;54.30;23.40;;;0.90;99.90;;;;;;4170734;28;20274;-60
2021/10/20 04:45:54;;;;;;;46.00;21.50;;;0.80;99.90;;;;;;4174145;28;20262;-60
2021/10/20 04:47:55;;;;;;;69.40;21.90;;;0.80;99.90;;;;;;4174352;28;20274;-62
2021/10/20 04:49:56;;;;;;;59.17;20.97;;;0.60;99.90;;;;;;4172411;28;20278;-62
2021/10/20 04:51:57;;;;;;;62.70;22.87;;;0.50;99.90;;;;;;4158187;28;20326;-60
2021/10/20 04:53:58;;;;;;;49.80;21.23;;;0.40;99.90;;;;;;4170720;28;20324;-60
2021/10/20 04:55:59;;;;;;;45.33;21.03;;;0.40;99.90;;;;;;4169608;28;20327;-60
2021/10/20 04:58:06;;;;;;;65.47;23.23;;;0.30;99.90;;;;;;4171647;28;20298;-61
2021/10/20 05:00:08;;;;;;;86.47;23.87;;;0.30;99.90;;;;;;4169397;28;21120;-61
2021/10/20 05:02:10;;;;;;;78.83;23.63;;;0.20;99.90;;;;;;4170537;28;20254;-61
2021/10/20 05:04:11;;;;;;;65.23;24.50;;;0.10;99.90;;;;;;4170796;28;20273;-61
2021/10/20 05:06:12;;;;;;;105.57;25.73;;;0.00;99.90;;;;;;4169633;28;20281;-61
2021/10/20 05:08:13;;;;;;;140.37;29.07;;;0.00;99.90;;;;;;4161889;28;20278;-60
2021/10/20 05:10:14;;;;;;;180.77;31.83;;;-0.10;99.90;;;;;;4168265;28;20350;-61
2021/10/20 05:12:16;;;;;;;91.97;31.40;;;-0.10;99.90;;;;;;4171378;28;20339;-62
2021/10/20 05:14:17;;;;;;;117.87;31.87;;;-0.10;99.90;;;;;;4169060;28;20754;-59
2021/10/20 05:16:18;;;;;;;136.50;34.57;;;-0.10;99.90;;;;;;4173035;28;20327;-61
2021/10/20 05:18:19;;;;;;;110.23;35.03;;;-0.20;99.90;;;;;;4168109;28;20301;-61
2021/10/20 05:20:20;;;;;;;148.90;34.53;;;-0.20;99.90;;;;;;4167235;28;20308;-61
2021/10/20 05:22:21;;;;;;;157.47;37.50;;;-0.20;99.90;;;;;;4169771;28;20293;-59
2021/10/20 05:24:23;;;;;;;122.40;36.23;;;-0.20;99.90;;;;;;4169873;28;20285;-61
2021/10/20 05:26:24;;;;;;;167.63;42.50;;;-0.10;99.90;;;;;;4169299;28;20262;-59
2021/10/20 05:28:25;;;;;;;160.73;38.67;;;-0.10;99.90;;;;;;4171210;28;20900;-56
2021/10/20 05:30:26;;;;;;;150.10;40.40;;;0.00;99.90;;;;;;4167436;28;21007;-59
2021/10/20 05:32:28;;;;;;;131.77;39.77;;;0.00;99.90;;;;;;4169270;28;20331;-61
2021/10/20 05:34:29;;;;;;;127.83;34.97;;;0.00;99.90;;;;;;4169092;28;20284;-58
2021/10/20 05:36:30;;;;;;;143.97;37.17;;;0.10;99.90;;;;;;4170126;28;20274;-60
2021/10/20 05:38:31;;;;;;;148.20;38.87;;;0.10;99.90;;;;;;4171518;28;20647;-56
2021/10/20 05:40:34;;;;;;;100.57;37.33;;;0.10;99.90;;;;;;4169303;28;20343;-60
2021/10/20 05:42:35;;;;;;;128.67;39.17;;;0.10;99.90;;;;;;4170110;28;21131;-59
2021/10/20 05:44:36;;;;;;;97.47;34.50;;;0.10;99.90;;;;;;4169560;28;20266;-57
2021/10/20 05:46:37;;;;;;;102.03;32.83;;;0.10;99.90;;;;;;4170619;28;20274;-62
2021/10/20 05:48:38;;;;;;;104.20;34.37;;;0.20;99.90;;;;;;4168622;28;20282;-63
2021/10/20 05:50:39;;;;;;;104.63;34.20;;;0.20;99.90;;;;;;4170789;28;20685;-60
2021/10/20 05:52:41;;;;;;;94.47;36.43;;;0.20;99.90;;;;;;4167650;28;20282;-61
2021/10/20 05:54:42;;;;;;;84.43;32.67;;;0.20;99.90;;;;;;4173066;28;20328;-58
2021/10/20 05:56:44;;;;;;;75.17;33.00;;;0.30;99.90;;;;;;4173159;28;20281;-57
2021/10/20 05:58:45;;;;;;;155.87;40.30;;;0.30;99.90;;;;;;4174137;28;20665;-61
2021/10/20 06:00:46;;;;;;;153.80;43.23;;;0.40;99.90;;;;;;4173547;28;20273;-58
2021/10/20 06:02:47;;;;;;;135.70;42.97;;;0.50;99.90;;;;;;4173987;28;20270;-58
2021/10/20 06:04:51;;;;;;;135.93;42.03;;;0.60;99.90;;;;;;4173642;28;20745;-62
2021/10/20 06:06:52;;;;;;;102.87;35.47;;;0.60;99.90;;;;;;4173423;28;20340;-61
2021/10/20 06:08:53;;;;;;;102.10;33.40;;;0.70;99.90;;;;;;4174184;28;20282;-56
2021/10/20 06:10:54;;;;;;;102.30;30.73;;;0.80;99.90;;;;;;4171741;28;20339;-59
2021/10/20 06:12:55;;;;;;;109.20;29.37;;;0.80;99.90;;;;;;4156584;28;20263;-62
2021/10/20 06:14:57;;;;;;;61.90;23.63;;;0.80;99.90;;;;;;4172868;28;20278;-61
2021/10/20 06:16:58;;;;;;;65.30;22.00;;;0.80;99.90;;;;;;4174447;28;20274;-60
2021/10/20 06:18:59;;;;;;;68.07;23.17;;;0.90;99.90;;;;;;4173129;28;20262;-60
2021/10/20 06:21:00;;;;;;;60.20;21.53;;;1.00;99.90;;;;;;4174201;28;20332;-60
2021/10/20 06:23:03;;;;;;;91.77;26.23;;;1.00;99.90;;;;;;4173446;28;20320;-59
2021/10/20 06:25:04;;;;;;;95.33;36.20;;;1.10;99.90;;;;;;4174620;28;20674;-60
2021/10/20 06:27:05;;;;;;;66.80;27.60;;;1.10;99.90;;;;;;4173165;28;20282;-56
2021/10/20 06:29:07;;;;;;;77.30;25.83;;;1.20;99.90;;;;;;4173935;28;20319;-59
2021/10/20 06:31:08;;;;;;;71.00;26.10;;;1.20;99.90;;;;;;4172589;28;20258;-55
2021/10/20 06:33:09;;;;;;;77.37;29.80;;;1.20;99.90;;;;;;4173639;28;20270;-61
2021/10/20 06:35:11;;;;;;;91.90;30.77;;;1.30;99.90;;;;;;4173361;28;20673;-58
2021/10/20 06:37:12;;;;;;;73.07;25.57;;;1.20;99.90;;;;;;4172675;28;20681;-59
2021/10/20 06:39:14;;;;;;;64.70;25.43;;;1.10;99.90;;;;;;4174411;28;21099;-59
2021/10/20 06:41:15;;;;;;;60.93;24.30;;;1.20;99.90;;;;;;4173130;28;20305;-58
2021/10/20 06:43:16;;;;;;;69.27;25.27;;;1.20;99.90;;;;;;4156370;28;20278;-57
2021/10/20 06:45:17;;;;;;;75.50;25.90;;;1.20;99.90;;;;;;4155202;28;20730;-60
2021/10/20 06:47:18;;;;;;;70.33;29.17;;;1.30;99.90;;;;;;4172925;28;20401;-58
2021/10/20 06:49:19;;;;;;;96.30;26.97;;;1.30;99.90;;;;;;4175031;28;20350;-57
2021/10/20 06:51:20;;;;;;;76.43;28.50;;;1.20;99.90;;;;;;4189377;28;20273;-55
2021/10/20 06:53:23;;;;;;;66.60;27.67;;;1.20;99.90;;;;;;4187985;28;20304;-59
2021/10/20 06:55:25;;;;;;;90.93;32.07;;;1.30;99.90;;;;;;4173853;28;20356;-59
2021/10/20 06:57:26;;;;;;;90.03;31.47;;;1.40;99.90;;;;;;4171120;28;20297;-60
2021/10/20 06:59:27;;;;;;;89.43;32.23;;;1.50;99.90;;;;;;4172934;28;20339;-59
2021/10/20 07:01:29;;;;;;;75.87;30.60;;;1.60;99.90;;;;;;4171587;28;20300;-58
2021/10/20 07:03:30;;;;;;;164.03;34.67;;;1.70;99.90;;;;;;4173698;28;20336;-54
2021/10/20 07:05:32;;;;;;;75.43;32.17;;;1.70;99.90;;;;;;4172951;28;20266;-59
2021/10/20 07:07:33;;;;;;;94.30;33.10;;;1.80;99.90;;;;;;4172592;28;20278;-60
2021/10/20 07:09:34;;;;;;;100.63;32.33;;;1.90;99.90;;;;;;4172458;28;20332;-59
2021/10/20 07:11:35;;;;;;;107.00;29.20;;;2.00;99.90;;;;;;4172599;28;20343;-58
2021/10/20 07:13:36;;;;;;;87.90;30.27;;;2.00;99.90;;;;;;4173276;28;20262;-59
2021/10/20 07:15:37;;;;;;;67.07;27.70;;;2.00;99.90;;;;;;4172304;28;20331;-57
2021/10/20 07:17:38;;;;;;;83.13;30.10;;;2.00;99.90;;;;;;4173660;28;20387;-61
2021/10/20 07:19:40;;;;;;;85.10;27.20;;;2.00;99.90;;;;;;4170861;28;20286;-58
2021/10/20 07:21:41;;;;;;;76.30;30.87;;;2.10;99.90;;;;;;4173750;28;20278;-61
2021/10/20 07:23:43;;;;;;;86.30;29.80;;;2.10;99.90;;;;;;4173177;28;20280;-59
2021/10/20 07:25:44;;;;;;;74.77;30.53;;;2.20;99.90;;;;;;4174454;28;21033;-57
2021/10/20 07:27:48;;;;;;;87.90;31.17;;;2.30;99.90;;;;;;4172046;28;20282;-56
2021/10/20 07:29:49;;;;;;;85.53;33.77;;;2.40;99.90;;;;;;4156963;28;20318;-57
2021/10/20 07:31:51;;;;;;;82.13;33.67;;;2.50;99.90;;;;;;4171629;28;20328;-60
2021/10/20 07:33:52;;;;;;;85.13;33.67;;;2.50;99.90;;;;;;4173491;28;20352;-57
2021/10/20 07:35:53;;;;;;;89.70;31.27;;;2.70;99.90;;;;;;4172241;28;20266;-58
2021/10/20 07:37:56;;;;;;;57.17;21.63;;;2.70;99.90;;;;;;4172638;28;20367;-56
2021/10/20 07:39:57;;;;;;;68.27;26.23;;;2.70;99.90;;;;;;4172912;28;20673;-59
2021/10/20 07:41:58;;;;;;;93.27;26.40;;;2.80;99.90;;;;;;4172986;28;20332;-58
2021/10/20 07:44:01;;;;;;;75.20;29.23;;;2.80;99.90;;;;;;4172527;28;20363;-58
2021/10/20 07:46:02;;;;;;;85.73;31.33;;;2.80;99.90;;;;;;4171657;28;20742;-60
2021/10/20 07:48:04;;;;;;;61.93;27.37;;;2.80;99.90;;;;;;4172841;28;20270;-58
2021/10/20 07:50:06;;;;;;;69.93;29.63;;;2.90;99.90;;;;;;4171095;28;20347;-57
2021/10/20 07:52:08;;;;;;;60.60;24.43;;;3.00;99.90;;;;;;4156243;28;20270;-59
2021/10/20 07:54:10;;;;;;;59.90;25.70;;;3.10;99.90;;;;;;4154837;28;20279;-57
2021/10/20 07:56:11;;;;;;;54.93;22.40;;;3.00;99.90;;;;;;4173405;28;20282;-60
2021/10/20 07:58:12;;;;;;;38.93;20.23;;;3.00;99.90;;;;;;4172138;28;20786;-60
2021/10/20 08:00:15;;;;;;;46.67;18.77;;;3.10;99.90;;;;;;4173294;28;20352;-58
2021/10/20 08:02:16;;;;;;;52.80;20.57;;;3.10;99.90;;;;;;4172167;28;20278;-59
2021/10/20 08:04:17;;;;;;;56.33;23.07;;;3.10;99.90;;;;;;4173652;28;20274;-60
2021/10/20 08:06:19;;;;;;;48.50;19.87;;;3.10;99.90;;;;;;4172516;28;20253;-58
2021/10/20 08:08:20;;;;;;;45.43;19.87;;;3.20;99.90;;;;;;4172979;28;20707;-57
2021/10/20 08:10:24;;;;;;;59.47;21.40;;;3.30;99.90;;;;;;4172875;28;20307;-57
2021/10/20 08:12:25;;;;;;;39.17;19.40;;;3.40;99.90;;;;;;4172897;28;20339;-58
2021/10/20 08:14:29;;;;;;;36.53;19.23;;;3.40;99.90;;;;;;4172225;28;20258;-60
2021/10/20 08:16:31;;;;;;;44.33;19.77;;;3.40;99.90;;;;;;4172282;28;20328;-60
2021/10/20 08:18:32;;;;;;;45.33;19.87;;;3.40;99.90;;;;;;4171911;28;20681;-60
2021/10/20 08:20:34;;;;;;;67.47;25.13;;;3.50;99.90;;;;;;4170178;28;21218;-61
2021/10/20 08:22:36;;;;;;;61.63;25.67;;;3.50;99.90;;;;;;4172648;28;20324;-59
2021/10/20 08:24:37;;;;;;;72.50;27.60;;;3.60;99.90;;;;;;4171338;28;20262;-59
2021/10/20 08:26:39;;;;;;;86.87;33.13;;;3.60;99.90;;;;;;4172182;28;20307;-60
2021/10/20 08:28:41;;;;;;;85.80;36.20;;;3.60;99.90;;;;;;4170308;28;20355;-58
2021/10/20 08:30:43;;;;;;;76.20;36.20;;;3.70;99.90;;;;;;4171610;28;20270;-60
2021/10/20 08:32:50;;;;;;;70.33;32.07;;;3.60;99.90;;;;;;4169784;28;20270;-58
2021/10/20 08:34:52;;;;;;;69.33;28.03;;;3.70;99.90;;;;;;4175096;28;20270;-58
2021/10/20 08:36:53;;;;;;;61.73;27.10;;;3.70;99.90;;;;;;4174588;28;20454;-59
2021/10/20 08:38:54;;;;;;;51.13;25.43;;;3.80;99.90;;;;;;4175640;28;20294;-61
2021/10/20 08:40:56;;;;;;;53.27;25.23;;;3.80;99.90;;;;;;4174745;28;20261;-59
2021/10/20 08:42:57;;;;;;;51.53;25.07;;;3.90;99.90;;;;;;4175709;28;20407;-61
2021/10/20 08:44:59;;;;;;;54.43;23.80;;;4.00;99.90;;;;;;4174664;28;20344;-59
2021/10/20 08:47:00;;;;;;;48.97;24.63;;;4.10;99.90;;;;;;4173803;28;20673;-60
2021/10/20 08:49:03;;;;;;;42.37;21.47;;;4.20;99.90;;;;;;4175615;28;20278;-60
2021/10/20 08:51:04;;;;;;;48.90;24.57;;;4.30;99.90;;;;;;4174126;28;20258;-61
2021/10/20 08:53:06;;;;;;;46.63;23.23;;;4.40;99.90;;;;;;4175293;28;20331;-57
2021/10/20 08:55:09;;;;;;;45.57;23.17;;;4.50;99.90;;;;;;4174277;28;20639;-60
2021/10/20 08:57:10;;;;;;;55.03;25.23;;;4.60;99.90;;;;;;4176073;28;20769;-62
2021/10/20 08:59:12;;;;;;;45.13;23.90;;;4.60;99.90;;;;;;4173966;28;20298;-61
2021/10/20 09:01:13;;;;;;;47.67;23.90;;;4.70;99.90;;;;;;4176023;28;20764;-58
2021/10/20 09:03:15;;;;;;;58.70;25.20;;;4.60;99.90;;;;;;4173514;28;20278;-59
2021/10/20 09:05:22;;;;;;;58.27;26.57;;;4.60;99.90;;;;;;4176245;28;20278;-58
2021/10/20 09:07:23;;;;;;;49.90;27.17;;;4.80;99.90;;;;;;4174513;28;20423;-60
2021/10/20 09:09:32;;;;;;;55.23;25.20;;;4.90;99.90;;;;;;4175320;28;20296;-59
2021/10/20 09:11:34;;;;;;;48.33;24.97;;;5.00;99.90;;;;;;4173712;28;20285;-60
2021/10/20 09:13:35;;;;;;;49.53;24.93;;;5.20;99.90;;;;;;4175761;28;20270;-59
2021/10/20 09:15:37;;;;;;;56.50;26.20;;;5.50;99.90;;;;;;4174397;28;20656;-59
2021/10/20 09:17:51;;;;;;;49.87;25.17;;;5.70;99.90;;;;;;4174808;28;20783;-60
2021/10/20 09:19:58;;;;;;;48.67;25.33;;;5.70;99.90;;;;;;4174187;28;20339;-60
2021/10/20 09:22:02;;;;;;;52.30;25.13;;;5.80;99.90;;;;;;4174609;28;20282;-60
2021/10/20 09:24:10;;;;;;;49.47;24.73;;;5.90;99.90;;;;;;4173467;28;20289;-57
2021/10/20 09:26:11;;;;;;;43.40;23.60;;;6.20;99.90;;;;;;4172885;28;20316;-60
2021/10/20 09:28:33;;;;;;;46.93;23.47;;;6.40;99.90;;;;;;4174205;28;20963;-58
2021/10/20 09:30:37;;;;;;;55.60;24.53;;;6.80;99.90;;;;;;4172369;28;20669;-60
2021/10/20 09:32:39;;;;;;;45.77;24.50;;;7.10;99.90;;;;;;4147454;28;20818;-59
2021/10/20 09:34:40;;;;;;;45.77;23.90;;;7.50;99.90;;;;;;4174017;28;20266;-59
2021/10/20 09:36:42;;;;;;;40.77;23.17;;;7.90;99.90;;;;;;4174550;28;20037;-59
2021/10/20 09:38:47;;;;;;;45.10;23.23;;;8.10;99.90;;;;;;4177296;28;20097;-60
2021/10/20 09:40:49;;;;;;;44.53;23.17;;;8.40;99.90;;;;;;4175071;28;20021;-60
2021/10/20 09:42:53;;;;;;;41.97;22.87;;;8.50;99.90;;;;;;4173749;28;20032;-60
2021/10/20 09:44:55;;;;;;;38.53;21.83;;;8.60;99.90;;;;;;4173919;28;20077;-60
2021/10/20 09:46:56;;;;;;;43.67;21.93;;;8.60;99.90;;;;;;4173847;28;20366;-61
2021/10/20 09:49:04;;;;;;;36.03;21.87;;;8.50;99.90;;;;;;4175332;28;20090;-62
2021/10/20 09:51:13;;;;;;;37.47;21.90;;;8.60;99.90;;;;;;4173378;28;20049;-58
2021/10/20 09:53:14;;;;;;;38.17;22.10;;;8.80;99.90;;;;;;4173557;28;20025;-59
2021/10/20 09:55:30;;;;;;;42.63;23.90;;;8.90;99.90;;;;;;4177930;28;20071;-59
2021/10/20 09:57:31;;;;;;;45.53;25.33;;;9.10;99.90;;;;;;4174287;28;20094;-59
2021/10/20 09:59:33;;;;;;;44.10;21.13;;;9.40;99.90;;;;;;4154528;28;20053;-60
2021/10/20 10:01:35;;;;;;;42.07;22.00;;;9.70;99.90;;;;;;4174096;28;20049;-55
2021/10/20 10:03:37;;;;;;;36.57;21.23;;;9.80;99.90;;;;;;4172020;28;20095;-59
2021/10/20 10:05:38;;;;;;;37.60;21.77;;;9.90;99.90;;;;;;4174569;28;20503;-61
2021/10/20 10:07:40;;;;;;;37.07;20.90;;;10.10;99.90;;;;;;4162232;28;20508;-61
2021/10/20 10:09:41;;;;;;;35.43;20.07;;;10.30;99.90;;;;;;4189756;28;20044;-60
2021/10/20 10:11:53;;;;;;;42.10;20.67;;;10.50;99.90;;;;;;4176647;28;20091;-57
2021/10/20 10:14:01;;;;;;;34.13;19.57;;;10.50;99.90;;;;;;4162482;28;20033;-60
2021/10/20 10:16:05;;;;;;;40.90;19.53;;;10.70;99.90;;;;;;4155233;28;20041;-61
2021/10/20 10:18:09;;;;;;;34.53;18.90;;;10.80;99.90;;;;;;4173468;28;20539;-62
2021/10/20 10:20:15;;;;;;;29.67;17.53;;;10.90;99.90;;;;;;4173338;28;20037;-59
2021/10/20 10:22:26;;;;;;;27.87;16.40;;;10.90;99.90;;;;;;4173531;28;20060;-60
2021/10/20 10:24:35;;;;;;;26.30;14.93;;;10.90;99.90;;;;;;4173042;28;20545;-60